createdAt,value
2017-03-15T10:49:46.148Z,1029.21
2017-03-15T10:50:46.806Z,1029.34
2017-03-15T10:51:47.478Z,1029.36
2017-03-15T10:52:48.143Z,1029.36
2017-03-15T10:53:48.790Z,1029.36
2017-03-15T10:54:49.447Z,1029.38
2017-03-15T10:55:50.098Z,1029.37
2017-03-15T10:56:50.799Z,1029.31
2017-03-15T10:57:51.442Z,1029.29
2017-03-15T10:58:52.124Z,1029.22
2017-03-15T10:59:52.836Z,1029.4
2017-03-15T11:00:53.496Z,1029.33
2017-03-15T11:01:54.143Z,1029.34
2017-03-15T11:02:54.805Z,1029.32
2017-03-15T11:03:55.465Z,1029.27
2017-03-15T11:04:56.151Z,1029.3
2017-03-15T11:05:56.810Z,1029.25
2017-03-15T11:06:57.491Z,1029.22
2017-03-15T11:07:58.178Z,1029.26
2017-03-15T11:08:58.851Z,1029.28
2017-03-15T11:09:59.576Z,1029.27
2017-03-15T11:11:00.356Z,1029.34
2017-03-15T11:12:01.019Z,1029.35
2017-03-15T11:13:01.678Z,1029.38
2017-03-15T11:14:02.364Z,1029.41
2017-03-15T11:15:03.042Z,1029.42
2017-03-15T11:16:03.729Z,1029.4
2017-03-15T11:17:04.397Z,1029.4
2017-03-15T11:18:05.057Z,1029.29
2017-03-15T11:19:05.718Z,1029.3
2017-03-15T11:20:06.395Z,1029.29
2017-03-15T11:21:07.126Z,1029.29
2017-03-15T11:22:07.775Z,1029.28
2017-03-15T11:23:08.434Z,1029.31
2017-03-15T11:24:09.128Z,1029.24
2017-03-15T11:25:09.801Z,1029.34
2017-03-15T11:26:10.488Z,1029.29
2017-03-15T11:27:11.164Z,1029.32
2017-03-15T11:28:11.849Z,1029.33
2017-03-15T11:29:12.525Z,1029.26
2017-03-15T11:30:13.238Z,1029.3
2017-03-15T11:31:13.914Z,1029.24
2017-03-15T11:32:14.566Z,1029.24
2017-03-15T11:33:15.251Z,1029.21
2017-03-15T11:34:15.904Z,1029.19
2017-03-15T11:35:16.574Z,1029.2
2017-03-15T11:36:17.262Z,1029.28
2017-03-15T11:37:17.916Z,1029.24
2017-03-15T11:38:18.594Z,1029.29
2017-03-15T11:39:19.321Z,1029.27
2017-03-15T11:40:20.090Z,1029.27
2017-03-15T11:41:20.758Z,1029.27
2017-03-15T11:42:21.419Z,1029.3
2017-03-15T11:43:22.086Z,1029.26
2017-03-15T11:44:22.754Z,1029.29
2017-03-15T11:45:23.419Z,1029.36
2017-03-15T11:46:24.064Z,1029.34
2017-03-15T11:47:24.742Z,1029.37
2017-03-15T11:48:25.417Z,1029.32
2017-03-15T11:49:26.077Z,1029.31
2017-03-15T11:50:26.819Z,1029.28
2017-03-15T11:51:27.468Z,1029.23
2017-03-15T11:52:28.108Z,1029.19
2017-03-15T11:53:28.840Z,1029.21
2017-03-15T11:54:29.491Z,1029.2
2017-03-15T11:55:30.180Z,1029.16
2017-03-15T11:56:30.850Z,1029.17
2017-03-15T11:57:31.514Z,1029.21
2017-03-15T11:58:32.183Z,1029.17
2017-03-15T11:59:32.847Z,1029.14
2017-03-15T12:00:33.514Z,1029.12
2017-03-15T12:01:34.156Z,1029.17
2017-03-15T12:02:34.822Z,1029.21
2017-03-15T12:03:35.449Z,1029.24
2017-03-15T12:04:36.119Z,1029.18
2017-03-15T12:05:36.785Z,1029.17
2017-03-15T12:06:37.475Z,1029.15
2017-03-15T12:07:38.149Z,1029.13
2017-03-15T12:08:38.797Z,1029.21
2017-03-15T12:09:39.464Z,1029.16
2017-03-15T12:10:40.164Z,1029.17
2017-03-15T12:11:40.821Z,1029.21
2017-03-15T12:12:41.501Z,1029.19
2017-03-15T12:13:42.179Z,1029.17
2017-03-15T12:14:42.846Z,1029.14
2017-03-15T12:15:43.517Z,1029.1
2017-03-15T12:16:44.223Z,1029.09
2017-03-15T12:17:44.892Z,1029.09
2017-03-15T12:18:45.544Z,1029.17
2017-03-15T12:19:46.202Z,1029.23
2017-03-15T12:20:46.860Z,1029.18
2017-03-15T12:21:47.521Z,1029.31
2017-03-15T12:22:48.181Z,1029.28
2017-03-15T12:23:48.844Z,1029.2
2017-03-15T12:24:49.495Z,1029.26
2017-03-15T12:25:50.175Z,1029.18
2017-03-15T12:26:50.843Z,1029.17
2017-03-15T12:27:51.487Z,1029.22
2017-03-15T12:28:52.151Z,1029.25
2017-03-15T12:29:52.811Z,1029.2
2017-03-15T12:30:53.457Z,1029.15
2017-03-15T12:31:54.119Z,1029.22
2017-03-15T12:32:54.777Z,1029.26
2017-03-15T12:33:55.437Z,1029.31
2017-03-15T12:34:56.094Z,1029.34
2017-03-15T12:35:56.750Z,1029.31
2017-03-15T12:36:57.435Z,1029.4
2017-03-15T12:37:58.105Z,1029.3
2017-03-15T12:38:58.755Z,1029.29
2017-03-15T12:39:59.404Z,1029.33
2017-03-15T12:41:00.070Z,1029.29
2017-03-15T12:42:00.725Z,1029.26
2017-03-15T12:43:01.374Z,1029.2
2017-03-15T12:44:02.029Z,1029.21
2017-03-15T12:45:02.690Z,1029.28
2017-03-15T12:46:03.397Z,1029.21
2017-03-15T12:47:04.063Z,1029.23
2017-03-15T12:48:04.728Z,1029.26
2017-03-15T12:49:05.406Z,1029.19
2017-03-15T12:50:06.054Z,1029.17
2017-03-15T12:51:06.702Z,1029.23
2017-03-15T12:52:07.348Z,1029.2
2017-03-15T12:53:08.011Z,1029.2
2017-03-15T12:54:08.669Z,1029.14
2017-03-15T12:55:09.337Z,1029.15
2017-03-15T12:56:09.979Z,1029.18
2017-03-15T12:57:10.623Z,1029.15
2017-03-15T12:58:11.293Z,1029.08
2017-03-15T12:59:11.967Z,1029.08
2017-03-15T13:00:12.644Z,1029.13
2017-03-15T13:01:13.302Z,1029.1
2017-03-15T13:02:13.959Z,1029.13
2017-03-15T13:03:14.614Z,1029.16
2017-03-15T13:04:15.279Z,1029.21
2017-03-15T13:05:15.959Z,1029.21
2017-03-15T13:06:16.614Z,1029.17
2017-03-15T13:07:17.295Z,1029.15
2017-03-15T13:08:17.973Z,1029.1
2017-03-15T13:09:18.619Z,1029.07
2017-03-15T13:10:19.272Z,1029.1
2017-03-15T13:11:19.952Z,1029.12
2017-03-15T13:12:20.610Z,1029.16
2017-03-15T13:13:21.249Z,1029.19
2017-03-15T13:14:21.889Z,1029.13
2017-03-15T13:15:22.577Z,1029.03
2017-03-15T13:16:23.234Z,1029.08
2017-03-15T13:17:23.909Z,1029.12
2017-03-15T13:18:24.563Z,1029.22
2017-03-15T13:19:25.291Z,1029.22
2017-03-15T13:20:25.944Z,1029.22
2017-03-15T13:21:26.601Z,1029.21
2017-03-15T13:22:27.256Z,1029.23
2017-03-15T13:23:27.916Z,1029.27
2017-03-15T13:24:28.572Z,1029.26
2017-03-15T13:25:29.231Z,1029.35
2017-03-15T13:26:29.936Z,1029.37
2017-03-15T13:27:30.593Z,1029.31
2017-03-15T13:28:31.254Z,1029.26
2017-03-15T13:29:31.912Z,1029.24
2017-03-15T13:30:32.567Z,1029.26
2017-03-15T13:31:33.219Z,1029.22
2017-03-15T13:32:33.907Z,1029.26
2017-03-15T13:33:34.554Z,1029.19
2017-03-15T13:34:35.191Z,1029.22
2017-03-15T13:35:35.845Z,1029.21
2017-03-15T13:36:36.491Z,1029.27
2017-03-15T13:37:37.158Z,1029.27
2017-03-15T13:38:37.814Z,1029.29
2017-03-15T13:39:38.519Z,1029.3
2017-03-15T13:40:39.179Z,1029.27
2017-03-15T13:41:39.854Z,1029.22
2017-03-15T13:42:40.512Z,1029.18
2017-03-15T13:43:41.201Z,1029.28
2017-03-15T13:44:41.859Z,1029.29
2017-03-15T13:45:42.541Z,1029.28
2017-03-15T13:46:43.204Z,1029.35
2017-03-15T13:47:43.888Z,1029.3
2017-03-15T13:48:44.551Z,1029.3
2017-03-15T13:49:45.238Z,1029.34
2017-03-15T13:50:45.918Z,1029.3
2017-03-15T13:51:46.658Z,1029.35
2017-03-15T13:52:47.296Z,1029.25
2017-03-15T13:53:47.966Z,1029.3
2017-03-15T13:54:48.704Z,1029.27
2017-03-15T13:55:49.370Z,1029.31
2017-03-15T13:56:50.014Z,1029.32
2017-03-15T13:57:50.685Z,1029.25
2017-03-15T13:58:51.345Z,1029.34
2017-03-15T13:59:52.007Z,1029.34
2017-03-15T14:00:52.652Z,1029.35
2017-03-15T14:01:53.314Z,1029.35
2017-03-15T14:02:53.971Z,1029.4
2017-03-15T14:03:54.625Z,1029.42
2017-03-15T14:04:55.294Z,1029.41
2017-03-15T14:05:55.970Z,1029.34
2017-03-15T14:06:56.658Z,1029.38
2017-03-15T14:07:57.316Z,1029.41
2017-03-15T14:08:57.980Z,1029.36
2017-03-15T14:09:58.649Z,1029.42
2017-03-15T14:10:59.303Z,1029.36
2017-03-15T14:11:59.963Z,1029.36
2017-03-15T14:13:00.638Z,1029.43
2017-03-15T14:14:01.304Z,1029.43
2017-03-15T14:15:01.998Z,1029.42
2017-03-15T14:16:02.759Z,1029.49
2017-03-15T14:17:03.399Z,1029.43
2017-03-15T14:18:04.090Z,1029.36
2017-03-15T14:19:04.764Z,1029.4
2017-03-15T14:20:05.426Z,1029.4
2017-03-15T14:21:06.080Z,1029.39
2017-03-15T14:22:06.752Z,1029.43
2017-03-15T14:23:07.417Z,1029.44
2017-03-15T14:24:08.116Z,1029.39
2017-03-15T14:25:08.787Z,1029.38
2017-03-15T14:26:10.085Z,1029.4
2017-03-15T14:27:10.767Z,1029.41
2017-03-15T14:28:11.441Z,1029.44
2017-03-15T14:29:12.085Z,1029.37
2017-03-15T14:30:12.748Z,1029.4
2017-03-15T14:31:13.406Z,1029.4
2017-03-15T14:32:14.078Z,1029.38
2017-03-15T14:33:14.756Z,1029.39
2017-03-15T14:34:15.419Z,1029.34
2017-03-15T14:35:16.088Z,1029.36
2017-03-15T14:36:16.775Z,1029.36
2017-03-15T14:37:17.439Z,1029.36
2017-03-15T14:38:18.158Z,1029.35
2017-03-15T14:39:18.836Z,1029.38
2017-03-15T14:40:19.490Z,1029.35
2017-03-15T14:41:20.189Z,1029.36
2017-03-15T14:42:20.854Z,1029.32
2017-03-15T14:43:21.503Z,1029.37
2017-03-15T14:44:22.162Z,1029.34
2017-03-15T14:45:22.814Z,1029.36
2017-03-15T14:46:23.486Z,1029.3
2017-03-15T14:47:24.162Z,1029.33
2017-03-15T14:48:24.822Z,1029.29
2017-03-15T14:49:25.488Z,1029.34
2017-03-15T14:50:26.132Z,1029.28
2017-03-15T14:51:26.908Z,1029.25
2017-03-15T14:52:27.626Z,1029.25
2017-03-15T14:53:28.296Z,1029.29
2017-03-15T14:54:28.959Z,1029.23
2017-03-15T14:55:29.619Z,1029.19
2017-03-15T14:56:30.280Z,1029.19
2017-03-15T14:57:30.938Z,1029.19
2017-03-15T14:58:31.610Z,1029.14
2017-03-15T14:59:32.268Z,1029.17
2017-03-15T15:00:32.973Z,1029.23
2017-03-15T15:01:33.629Z,1029.2
2017-03-15T15:02:34.302Z,1029.18
2017-03-15T15:03:34.980Z,1029.14
2017-03-15T15:04:35.654Z,1029.1
2017-03-15T15:05:36.303Z,1029.08
2017-03-15T15:06:36.970Z,1029.1
2017-03-15T15:07:37.643Z,1029.09
2017-03-15T15:08:38.328Z,1029.07
2017-03-15T15:09:38.989Z,1029.05
2017-03-15T15:10:39.664Z,1029.08
2017-03-15T15:11:40.351Z,1029.11
2017-03-15T15:12:41.013Z,1029.09
2017-03-15T15:13:41.695Z,1029.08
2017-03-15T15:14:42.357Z,1029.11
2017-03-15T15:15:43.029Z,1029.14
2017-03-15T15:16:43.701Z,1029.14
2017-03-15T15:17:44.370Z,1029.14
2017-03-15T15:18:45.040Z,1029.11
2017-03-15T15:19:45.740Z,1029.18
2017-03-15T15:20:46.404Z,1029.16
2017-03-15T15:21:47.058Z,1029.12
2017-03-15T15:22:47.732Z,1029.11
2017-03-15T15:23:48.419Z,1029.06
2017-03-15T15:24:49.090Z,1029.05
2017-03-15T15:25:49.765Z,1029.08
2017-03-15T15:26:50.441Z,1029.1
2017-03-15T15:27:51.103Z,1029.08
2017-03-15T15:28:51.778Z,1029.03
2017-03-15T15:29:52.436Z,1028.99
2017-03-15T15:30:53.118Z,1028.98
2017-03-15T15:31:53.798Z,1028.93
2017-03-15T15:32:54.462Z,1028.87
2017-03-15T15:33:55.124Z,1028.86
2017-03-15T15:34:55.779Z,1028.9
2017-03-15T15:35:56.442Z,1028.85
2017-03-15T15:36:57.096Z,1028.86
2017-03-15T15:37:57.764Z,1028.87
2017-03-15T15:38:58.457Z,1028.85
2017-03-15T15:39:59.173Z,1028.89
2017-03-15T15:40:59.849Z,1028.88
2017-03-15T15:42:00.512Z,1028.92
2017-03-15T15:43:01.177Z,1028.9
2017-03-15T15:44:01.851Z,1028.93
2017-03-15T15:45:02.527Z,1028.91
2017-03-15T15:46:03.214Z,1028.87
2017-03-15T15:47:03.862Z,1028.94
2017-03-15T15:48:04.555Z,1028.94
2017-03-15T15:49:05.256Z,1028.88
2017-03-15T15:50:05.926Z,1028.98
2017-03-15T15:51:06.627Z,1028.97
2017-03-15T15:52:07.294Z,1028.95
2017-03-15T15:53:07.963Z,1028.95
2017-03-15T15:54:08.626Z,1028.96
2017-03-15T15:55:09.298Z,1028.93
2017-03-15T15:56:09.966Z,1028.97
2017-03-15T15:57:10.708Z,1029.01
2017-03-15T15:58:11.381Z,1029.02
2017-03-15T15:59:12.096Z,1029.06
2017-03-15T16:00:12.748Z,1029.05
2017-03-15T16:01:13.412Z,1029.05
2017-03-15T16:02:14.105Z,1028.99
2017-03-15T16:03:14.800Z,1029
2017-03-15T16:04:15.472Z,1028.99
2017-03-15T16:05:16.122Z,1028.95
2017-03-15T16:06:16.853Z,1028.98
2017-03-15T16:07:17.521Z,1028.95
2017-03-15T16:08:18.206Z,1028.94
2017-03-15T16:09:18.866Z,1028.91
2017-03-15T16:10:19.529Z,1028.92
2017-03-15T16:11:20.194Z,1028.94
2017-03-15T16:12:20.847Z,1028.95
2017-03-15T16:13:21.500Z,1028.93
2017-03-15T16:14:22.153Z,1028.95
2017-03-15T16:15:22.812Z,1028.95
2017-03-15T16:16:23.521Z,1028.97
2017-03-15T16:17:24.186Z,1028.97
2017-03-15T16:18:24.852Z,1028.99
2017-03-15T16:19:25.516Z,1028.98
2017-03-15T16:20:26.178Z,1028.99
2017-03-15T16:21:26.850Z,1029
2017-03-15T16:22:27.510Z,1028.99
2017-03-15T16:23:28.188Z,1028.98
2017-03-15T16:24:28.865Z,1029.04
2017-03-15T16:25:29.562Z,1029.02
2017-03-15T16:26:30.226Z,1029.01
2017-03-15T16:27:30.879Z,1029.02
2017-03-15T16:28:31.529Z,1029.03
2017-03-15T16:29:32.262Z,1029.06
2017-03-15T16:30:32.932Z,1029.08
2017-03-15T16:31:33.665Z,1029.05
2017-03-15T16:32:34.331Z,1029.05
2017-03-15T16:33:34.998Z,1029.04
2017-03-15T16:34:35.675Z,1029.01
2017-03-15T16:35:36.413Z,1029
2017-03-15T16:36:37.087Z,1028.98
2017-03-15T16:37:37.742Z,1028.97
2017-03-15T16:38:38.411Z,1028.99
2017-03-15T16:39:39.088Z,1028.98
2017-03-15T16:40:39.815Z,1028.97
2017-03-15T16:41:40.492Z,1028.98
2017-03-15T16:42:41.167Z,1029
2017-03-15T16:43:41.894Z,1028.96
2017-03-15T16:44:42.567Z,1028.97
2017-03-15T16:45:43.252Z,1028.94
2017-03-15T16:46:43.916Z,1028.91
2017-03-15T16:47:44.611Z,1028.92
2017-03-15T16:48:45.296Z,1028.89
2017-03-15T16:49:45.951Z,1028.87
2017-03-15T16:50:46.611Z,1028.9
2017-03-15T16:51:47.289Z,1028.91
2017-03-15T16:52:47.935Z,1028.88
2017-03-15T16:53:48.610Z,1028.91
2017-03-15T16:54:49.285Z,1028.89
2017-03-15T16:55:49.946Z,1028.85
2017-03-15T16:56:50.597Z,1028.84
2017-03-15T16:57:51.259Z,1028.88
2017-03-15T16:58:51.925Z,1028.82
2017-03-15T16:59:52.594Z,1028.83
2017-03-15T17:00:53.261Z,1028.81
2017-03-15T17:01:53.936Z,1028.81
2017-03-15T17:02:54.666Z,1028.84
2017-03-15T17:03:55.285Z,1028.8
2017-03-15T17:04:55.947Z,1028.8
2017-03-15T17:05:56.649Z,1028.8
2017-03-15T17:06:57.299Z,1028.82
2017-03-15T17:07:57.965Z,1028.84
2017-03-15T17:08:58.636Z,1028.81
2017-03-15T17:09:59.337Z,1028.78
2017-03-15T17:10:59.985Z,1028.76
2017-03-15T17:12:00.637Z,1028.79
2017-03-15T17:13:01.320Z,1028.81
2017-03-15T17:14:02.035Z,1028.78
2017-03-15T17:15:02.725Z,1028.75
2017-03-15T17:16:03.419Z,1028.84
2017-03-15T17:17:04.062Z,1028.75
2017-03-15T17:18:04.730Z,1028.74
2017-03-15T17:19:05.395Z,1028.76
2017-03-15T17:20:06.078Z,1028.76
2017-03-15T17:21:07.150Z,1028.79
2017-03-15T17:22:07.837Z,1028.78
2017-03-15T17:23:08.512Z,1028.75
2017-03-15T17:24:09.179Z,1028.73
2017-03-15T17:25:09.880Z,1028.74
2017-03-15T17:26:10.548Z,1028.77
2017-03-15T17:27:11.414Z,1028.76
2017-03-15T17:28:12.345Z,1028.76
2017-03-15T17:29:13.108Z,1028.76
2017-03-15T17:30:13.790Z,1028.81
2017-03-15T17:31:14.506Z,1028.77
2017-03-15T17:32:15.236Z,1028.78
2017-03-15T17:33:15.955Z,1028.77
2017-03-15T17:34:16.609Z,1028.8
2017-03-15T17:35:17.265Z,1028.78
2017-03-15T17:36:17.992Z,1028.77
2017-03-15T17:37:18.655Z,1028.78
2017-03-15T17:38:19.327Z,1028.73
2017-03-15T17:39:20.003Z,1028.78
2017-03-15T17:40:20.645Z,1028.76
2017-03-15T17:41:21.319Z,1028.76
2017-03-15T17:42:22.011Z,1028.73
2017-03-15T17:43:22.682Z,1028.79
2017-03-15T17:44:23.361Z,1028.78
2017-03-15T17:45:24.060Z,1028.83
2017-03-15T17:46:24.749Z,1028.83
2017-03-15T17:47:25.527Z,1028.8
2017-03-15T17:48:26.196Z,1028.76
2017-03-15T17:49:26.869Z,1028.76
2017-03-15T17:50:27.530Z,1028.75
2017-03-15T17:51:28.282Z,1028.75
2017-03-15T17:52:28.946Z,1028.73
2017-03-15T17:53:29.608Z,1028.78
2017-03-15T17:54:30.323Z,1028.77
2017-03-15T17:55:31.002Z,1028.75
2017-03-15T17:56:31.674Z,1028.76
2017-03-15T17:57:32.343Z,1028.77
2017-03-15T17:58:33.055Z,1028.74
2017-03-15T17:59:33.745Z,1028.72
2017-03-15T18:00:34.451Z,1028.7
2017-03-15T18:01:35.159Z,1028.75
2017-03-15T18:02:35.890Z,1028.72
2017-03-15T18:03:36.539Z,1028.69
2017-03-15T18:04:37.208Z,1028.71
2017-03-15T18:05:37.878Z,1028.69
2017-03-15T18:06:38.561Z,1028.66
2017-03-15T18:07:39.249Z,1028.62
2017-03-15T18:08:39.989Z,1028.67
2017-03-15T18:09:40.674Z,1028.66
2017-03-15T18:10:41.339Z,1028.62
2017-03-15T18:11:42.095Z,1028.7
2017-03-15T18:12:42.743Z,1028.64
2017-03-15T18:13:43.436Z,1028.65
2017-03-15T18:14:44.080Z,1028.67
2017-03-15T18:15:44.749Z,1028.67
2017-03-15T18:16:45.435Z,1028.7
2017-03-15T18:17:46.104Z,1028.67
2017-03-15T18:18:46.759Z,1028.72
2017-03-15T18:19:47.425Z,1028.71
2017-03-15T18:20:48.099Z,1028.7
2017-03-15T18:21:48.797Z,1028.71
2017-03-15T18:22:49.693Z,1028.66
2017-03-15T18:23:50.365Z,1028.75
2017-03-15T18:24:51.080Z,1028.65
2017-03-15T18:25:51.780Z,1028.68
2017-03-15T18:26:52.433Z,1028.63
2017-03-15T18:27:53.188Z,1028.66
2017-03-15T18:28:53.866Z,1028.65
2017-03-15T18:29:54.516Z,1028.68
2017-03-15T18:30:55.190Z,1028.7
2017-03-15T18:31:55.968Z,1028.7
2017-03-15T18:32:56.614Z,1028.66
2017-03-15T18:33:57.268Z,1028.66
2017-03-15T18:34:57.951Z,1028.59
2017-03-15T18:35:58.609Z,1028.6
2017-03-15T18:36:59.394Z,1028.61
2017-03-15T18:38:00.068Z,1028.6
2017-03-15T18:39:00.724Z,1028.54
2017-03-15T18:40:01.382Z,1028.58
2017-03-15T18:41:02.040Z,1028.59
2017-03-15T18:42:02.698Z,1028.59
2017-03-15T18:43:03.426Z,1028.57
2017-03-15T18:44:04.067Z,1028.59
2017-03-15T18:45:04.725Z,1028.55
2017-03-15T18:46:05.391Z,1028.59
2017-03-15T18:47:06.048Z,1028.55
2017-03-15T18:48:06.705Z,1028.58
2017-03-15T18:49:07.341Z,1028.55
2017-03-15T18:50:08.019Z,1028.56
2017-03-15T18:51:08.714Z,1028.53
2017-03-15T18:52:09.389Z,1028.59
2017-03-15T18:53:10.049Z,1028.61
2017-03-15T18:54:10.747Z,1028.59
2017-03-15T18:55:11.435Z,1028.63
2017-03-15T18:56:12.105Z,1028.59
2017-03-15T18:57:12.769Z,1028.59
2017-03-15T18:58:13.439Z,1028.56
2017-03-15T18:59:14.086Z,1028.51
2017-03-15T19:00:14.744Z,1028.58
2017-03-15T19:01:15.432Z,1028.57
2017-03-15T19:02:16.081Z,1028.58
2017-03-15T19:03:16.739Z,1028.62
2017-03-15T19:04:17.392Z,1028.62
2017-03-15T19:05:18.054Z,1028.63
2017-03-15T19:06:18.717Z,1028.64
2017-03-15T19:07:19.383Z,1028.59
2017-03-15T19:08:20.040Z,1028.65
2017-03-15T19:09:20.715Z,1028.64
2017-03-15T19:10:21.461Z,1028.66
2017-03-15T19:11:22.129Z,1028.65
2017-03-15T19:12:22.804Z,1028.7
2017-03-15T19:13:23.816Z,1028.64
2017-03-15T19:14:24.786Z,1028.66
2017-03-15T19:15:25.436Z,1028.68
2017-03-15T19:16:26.101Z,1028.67
2017-03-15T19:17:26.803Z,1028.66
2017-03-15T19:18:27.734Z,1028.7
2017-03-15T19:19:28.398Z,1028.66
2017-03-15T19:20:29.053Z,1028.68
2017-03-15T19:21:29.709Z,1028.65
2017-03-15T19:22:30.367Z,1028.66
2017-03-15T19:23:31.116Z,1028.7
2017-03-15T19:24:31.790Z,1028.7
2017-03-15T19:25:32.460Z,1028.79
2017-03-15T19:26:33.175Z,1028.74
2017-03-15T19:27:33.819Z,1028.71
2017-03-15T19:28:34.478Z,1028.67
2017-03-15T19:29:35.118Z,1028.7
2017-03-15T19:30:35.784Z,1028.62
2017-03-15T19:31:36.449Z,1028.54
2017-03-15T19:32:37.125Z,1028.52
2017-03-15T19:33:38.006Z,1028.51
2017-03-15T19:34:38.671Z,1028.54
2017-03-15T19:35:39.329Z,1028.51
2017-03-15T19:36:39.991Z,1028.55
2017-03-15T19:37:40.671Z,1028.5
2017-03-15T19:38:41.327Z,1028.44
2017-03-15T19:39:41.978Z,1028.45
2017-03-15T19:40:42.688Z,1028.46
2017-03-15T19:41:43.358Z,1028.41
2017-03-15T19:42:44.616Z,1028.47
2017-03-15T19:43:45.302Z,1028.42
2017-03-15T19:44:45.965Z,1028.44
2017-03-15T19:45:46.606Z,1028.45
2017-03-15T19:46:47.276Z,1028.51
2017-03-15T19:47:47.920Z,1028.49
2017-03-15T19:48:48.581Z,1028.45
2017-03-15T19:49:49.224Z,1028.52
2017-03-15T19:50:50.066Z,1028.5
2017-03-15T19:51:50.721Z,1028.53
2017-03-15T19:52:51.434Z,1028.55
2017-03-15T19:53:52.093Z,1028.55
2017-03-15T19:54:52.743Z,1028.6
2017-03-15T19:55:53.407Z,1028.58
2017-03-15T19:56:54.078Z,1028.61
2017-03-15T19:57:54.748Z,1028.61
2017-03-15T19:58:55.409Z,1028.65
2017-03-15T19:59:56.093Z,1028.69
2017-03-15T20:00:56.763Z,1028.68
2017-03-15T20:01:57.431Z,1028.71
2017-03-15T20:02:58.182Z,1028.72
2017-03-15T20:03:58.985Z,1028.69
2017-03-15T20:04:59.689Z,1028.69
2017-03-15T20:06:00.521Z,1028.69
2017-03-15T20:07:01.268Z,1028.65
2017-03-15T20:08:01.948Z,1028.61
2017-03-15T20:09:02.770Z,1028.63
2017-03-15T20:10:03.476Z,1028.58
2017-03-15T20:11:04.211Z,1028.56
2017-03-15T20:12:04.928Z,1028.59
2017-03-15T20:13:05.754Z,1028.52
2017-03-15T20:14:06.538Z,1028.52
2017-03-15T20:15:07.334Z,1028.56
2017-03-15T20:16:08.073Z,1028.57
2017-03-15T20:17:08.922Z,1028.52
2017-03-15T20:18:09.731Z,1028.55
2017-03-15T20:19:10.521Z,1028.5
2017-03-15T20:20:11.231Z,1028.52
2017-03-15T20:21:12.022Z,1028.52
2017-03-15T20:22:12.683Z,1028.5
2017-03-15T20:23:13.726Z,1028.55
2017-03-15T20:24:14.684Z,1028.58
2017-03-15T20:25:15.501Z,1028.55
2017-03-15T20:26:16.271Z,1028.51
2017-03-15T20:27:17.287Z,1028.54
2017-03-15T20:28:18.001Z,1028.55
2017-03-15T20:29:18.736Z,1028.53
2017-03-15T20:30:19.430Z,1028.5
2017-03-15T20:31:20.097Z,1028.47
2017-03-15T20:32:20.782Z,1028.41
2017-03-15T20:33:21.482Z,1028.43
2017-03-15T20:34:22.308Z,1028.44
2017-03-15T20:35:23.149Z,1028.43
2017-03-15T20:36:23.892Z,1028.36
2017-03-15T20:37:24.688Z,1028.36
2017-03-15T20:38:25.414Z,1028.32
2017-03-15T20:39:26.184Z,1028.29
2017-03-15T20:40:26.976Z,1028.21
2017-03-15T20:41:27.916Z,1028.25
2017-03-15T20:42:28.609Z,1028.26
2017-03-15T20:43:29.332Z,1028.29
2017-03-15T20:44:30.047Z,1028.22
2017-03-15T20:45:30.790Z,1028.22
2017-03-15T20:46:31.460Z,1028.22
2017-03-15T20:47:32.136Z,1028.19
2017-03-15T20:48:32.820Z,1028.28
2017-03-15T20:49:33.495Z,1028.25
2017-03-15T20:50:34.160Z,1028.21
2017-03-15T20:51:34.837Z,1028.19
2017-03-15T20:52:35.567Z,1028.21
2017-03-15T20:53:36.261Z,1028.22
2017-03-15T20:54:36.932Z,1028.22
2017-03-15T20:55:37.590Z,1028.2
2017-03-15T20:56:38.335Z,1028.22
2017-03-15T20:57:39.012Z,1028.17
2017-03-15T20:58:39.671Z,1028.19
2017-03-15T20:59:40.345Z,1028.18
2017-03-15T21:00:41.021Z,1028.24
2017-03-15T21:01:42.022Z,1028.23
2017-03-15T21:02:42.708Z,1028.26
2017-03-15T21:03:43.404Z,1028.17
2017-03-15T21:04:44.127Z,1028.18
2017-03-15T21:05:44.963Z,1028.21
2017-03-15T21:06:45.757Z,1028.2
2017-03-15T21:07:46.565Z,1028.23
2017-03-15T21:08:47.156Z,1028.21
2017-03-15T21:09:47.938Z,1028.24
2017-03-15T21:10:48.704Z,1028.25
2017-03-15T21:11:49.370Z,1028.26
2017-03-15T21:12:50.078Z,1028.24
2017-03-15T21:13:50.774Z,1028.25
2017-03-15T21:14:51.511Z,1028.26
2017-03-15T21:15:52.233Z,1028.25
2017-03-15T21:16:53.049Z,1028.24
2017-03-15T21:17:53.763Z,1028.26
2017-03-15T21:18:54.478Z,1028.24
2017-03-15T21:19:55.302Z,1028.25
2017-03-15T21:20:56.082Z,1028.22
2017-03-15T21:21:57.115Z,1028.21
2017-03-15T21:22:57.824Z,1028.21
2017-03-15T21:23:58.555Z,1028.24
2017-03-15T21:24:59.285Z,1028.22
2017-03-15T21:26:00.046Z,1028.25
2017-03-15T21:27:00.958Z,1028.27
2017-03-15T21:28:01.781Z,1028.3
2017-03-15T21:29:02.473Z,1028.32
2017-03-15T21:30:03.144Z,1028.3
2017-03-15T21:31:03.818Z,1028.27
2017-03-15T21:32:04.483Z,1028.22
2017-03-15T21:33:05.160Z,1028.27
2017-03-15T21:34:05.895Z,1028.23
2017-03-15T21:35:06.590Z,1028.19
2017-03-15T21:36:07.279Z,1028.2
2017-03-15T21:37:07.955Z,1028.21
2017-03-15T21:38:08.671Z,1028.22
2017-03-15T21:39:09.385Z,1028.23
2017-03-15T21:40:10.139Z,1028.22
2017-03-15T21:41:10.880Z,1028.24
2017-03-15T21:42:11.589Z,1028.22
2017-03-15T21:43:12.313Z,1028.19
2017-03-15T21:44:13.003Z,1028.18
2017-03-15T21:45:13.689Z,1028.22
2017-03-15T21:46:14.426Z,1028.22
2017-03-15T21:47:15.244Z,1028.21
2017-03-15T21:48:15.960Z,1028.26
2017-03-15T21:49:16.689Z,1028.19
2017-03-15T21:50:17.350Z,1028.18
2017-03-15T21:51:18.078Z,1028.19
2017-03-15T21:52:18.839Z,1028.11
2017-03-15T21:53:19.490Z,1028.13
2017-03-15T21:54:20.251Z,1028.13
2017-03-15T21:55:20.981Z,1028.15
2017-03-15T21:56:21.756Z,1028.15
2017-03-15T21:57:22.570Z,1028.12
2017-03-15T21:58:23.310Z,1028.1
2017-03-15T21:59:24.035Z,1028.09
2017-03-15T22:00:24.800Z,1028.12
2017-03-15T22:01:25.522Z,1028.07
2017-03-15T22:02:26.310Z,1028.07
2017-03-15T22:03:27.061Z,1028.1
2017-03-15T22:04:27.832Z,1028.06
2017-03-15T22:05:28.542Z,1028.04
2017-03-15T22:06:29.254Z,1028.02
2017-03-15T22:07:30.003Z,1028
2017-03-15T22:08:30.752Z,1027.93
2017-03-15T22:09:31.453Z,1027.93
2017-03-15T22:10:32.138Z,1027.88
2017-03-15T22:11:32.921Z,1027.86
2017-03-15T22:12:33.645Z,1027.85
2017-03-15T22:13:34.508Z,1027.79
2017-03-15T22:14:35.285Z,1027.82
2017-03-15T22:15:35.997Z,1027.78
2017-03-15T22:16:36.735Z,1027.75
2017-03-15T22:17:37.435Z,1027.74
2017-03-15T22:18:38.083Z,1027.73
2017-03-15T22:19:38.748Z,1027.7
2017-03-15T22:20:39.438Z,1027.65
2017-03-15T22:21:40.106Z,1027.66
2017-03-15T22:22:41.257Z,1027.61
2017-03-15T22:23:42.888Z,1027.57
2017-03-15T22:24:43.814Z,1027.55
2017-03-15T22:25:44.885Z,1027.51
2017-03-15T22:26:45.567Z,1027.52
2017-03-15T22:27:46.237Z,1027.48
2017-03-15T22:28:46.898Z,1027.45
2017-03-15T22:29:47.574Z,1027.42
2017-03-15T22:30:48.260Z,1027.43
2017-03-15T22:31:48.925Z,1027.36
2017-03-15T22:32:49.594Z,1027.4
2017-03-15T22:33:50.255Z,1027.34
2017-03-15T22:34:50.929Z,1027.35
2017-03-15T22:35:51.614Z,1027.34
2017-03-15T22:36:52.285Z,1027.33
2017-03-15T22:37:52.995Z,1027.33
2017-03-15T22:38:53.664Z,1027.31
2017-03-15T22:39:54.334Z,1027.33
2017-03-15T22:40:55.002Z,1027.32
2017-03-15T22:41:55.722Z,1027.31
2017-03-15T22:42:56.391Z,1027.28
2017-03-15T22:43:57.072Z,1027.2
2017-03-15T22:44:57.745Z,1027.25
2017-03-15T22:45:58.400Z,1027.22
2017-03-15T22:46:59.057Z,1027.21
2017-03-15T22:47:59.725Z,1027.17
2017-03-15T22:49:00.410Z,1027.2
2017-03-15T22:50:01.079Z,1027.2
2017-03-15T22:51:01.744Z,1027.2
2017-03-15T22:52:02.405Z,1027.19
2017-03-15T22:53:03.071Z,1027.19
2017-03-15T22:54:03.745Z,1027.15
2017-03-15T22:55:04.425Z,1027.17
2017-03-15T22:56:05.097Z,1027.21
2017-03-15T22:57:05.769Z,1027.23
2017-03-15T22:58:06.430Z,1027.24
2017-03-15T22:59:07.089Z,1027.18
2017-03-15T23:00:07.752Z,1027.22
2017-03-15T23:01:08.410Z,1027.2
2017-03-15T23:02:09.045Z,1027.21
2017-03-15T23:03:09.699Z,1027.18
2017-03-15T23:04:10.362Z,1027.17
2017-03-15T23:05:11.028Z,1027.14
2017-03-15T23:06:11.688Z,1027.12